Time;durP1;ratioP1;P1;durP2;ratioP2;P2;SDS_P1;SDS_P2;PMS_P1;PMS_P2;Temp;Humidity;BMP_temperature;BMP_pressure;BME280_temperature;BME280_humidity;BME280_pressure;Samples;Min_cycle;Max_cycle;Signal;HPM_P1;HPM_P2
2022/06/20 00:00:47;;;;;;;;;;;;;;;14.45;74.15;101284.84;5062740;28;20007;-61
2022/06/20 00:03:19;;;;;;;;;;;;;;;14.44;74.10;101285.00;5063125;28;19924;-63
2022/06/20 00:05:44;;;;;;;;;;;;;;;14.58;73.74;101288.75;5063861;28;19925;-61
2022/06/20 00:08:10;;;;;;;;;;;;;;;14.45;73.87;101284.03;5062448;28;19936;-61
2022/06/20 00:10:36;;;;;;;;;;;;;;;14.42;74.25;101279.88;5065287;28;19928;-61
2022/06/20 00:13:02;;;;;;;;;;;;;;;14.37;73.99;101283.03;5063319;28;20282;-61
2022/06/20 00:15:31;;;;;;;;;;;;;;;14.30;73.76;101286.63;5065653;28;19932;-61
2022/06/20 00:17:57;;;;;;;;;;;;;;;14.21;73.47;101293.84;5065946;28;19924;-61
2022/06/20 00:20:23;;;;;;;;;;;;;;;14.18;73.79;101304.84;5061395;28;19928;-62
2022/06/20 00:22:48;;;;;;;;;;;;;;;14.19;74.02;101309.16;5062989;28;19931;-61
2022/06/20 00:25:16;;;;;;;;;;;;;;;14.22;73.85;101332.81;5054315;28;19928;-62
2022/06/20 00:27:43;;;;;;;;;;;;;;;14.27;73.74;101351.81;5063824;28;21349;-61
2022/06/20 00:30:10;;;;;;;;;;;;;;;14.29;73.92;101349.78;5059698;28;19924;-62
2022/06/20 00:32:35;;;;;;;;;;;;;;;14.34;73.32;101347.44;5064160;28;19982;-61
2022/06/20 00:35:02;;;;;;;;;;;;;;;14.35;73.18;101370.44;5057184;28;19928;-62
2022/06/20 00:37:27;;;;;;;;;;;;;;;14.40;73.06;101383.25;5063537;28;19946;-62
2022/06/20 00:39:52;;;;;;;;;;;;;;;14.39;73.06;101401.13;5065216;28;20374;-62
2022/06/20 00:42:18;;;;;;;;;;;;;;;14.46;73.07;101424.44;5063954;28;20035;-62
2022/06/20 00:44:46;;;;;;;;;;;;;;;14.41;72.81;101434.78;5059565;28;19995;-61
2022/06/20 00:47:13;;;;;;;;;;;;;;;14.41;73.05;101469.47;5061940;28;19931;-62
2022/06/20 00:49:54;;;;;;;;;;;;;;;14.38;73.25;101503.50;5064068;28;19924;-61
2022/06/20 00:52:25;;;;;;;;;;;;;;;14.41;73.06;101533.50;5063274;28;19954;-61
2022/06/20 00:54:59;;;;;;;;;;;;;;;14.45;73.03;101559.69;5064316;28;19939;-63
2022/06/20 00:57:28;;;;;;;;;;;;;;;14.43;72.79;101547.50;5046932;28;19935;-62
2022/06/20 01:00:06;;;;;;;;;;;;;;;14.42;72.98;101527.16;5064621;28;19951;-62
2022/06/20 01:02:33;;;;;;;;;;;;;;;14.43;72.99;101499.47;5045769;28;20439;-61
2022/06/20 01:05:05;;;;;;;;;;;;;;;14.44;73.22;101485.97;5061684;28;19950;-62
2022/06/20 01:07:38;;;;;;;;;;;;;;;14.32;73.78;101472.19;5061975;28;19935;-62
2022/06/20 01:10:04;;;;;;;;;;;;;;;14.25;73.47;101466.69;5062902;28;20011;-61
2022/06/20 01:12:32;;;;;;;;;;;;;;;14.24;73.28;101458.84;5063814;28;19942;-61
2022/06/20 01:14:58;;;;;;;;;;;;;;;14.19;73.57;101450.50;5063615;28;20039;-62
2022/06/20 01:17:36;;;;;;;;;;;;;;;14.12;73.88;101440.53;5063498;28;20501;-61
2022/06/20 01:20:04;;;;;;;;;;;;;;;14.12;74.37;101434.38;5060689;28;19929;-62
2022/06/20 01:22:29;;;;;;;;;;;;;;;14.13;73.33;101420.84;5059589;28;19928;-62
2022/06/20 01:25:05;;;;;;;;;;;;;;;14.14;74.62;101416.38;5059169;28;19943;-62
2022/06/20 01:27:39;;;;;;;;;;;;;;;14.10;74.47;101402.53;5063908;28;20537;-62
2022/06/20 01:30:04;;;;;;;;;;;;;;;14.11;74.02;101390.03;5057475;28;19928;-62
2022/06/20 01:32:29;;;;;;;;;;;;;;;14.15;74.17;101387.88;5061834;28;20303;-62
2022/06/20 01:34:57;;;;;;;;;;;;;;;14.13;75.07;101394.19;5057926;28;19958;-62
2022/06/20 01:37:23;;;;;;;;;;;;;;;14.10;74.01;101391.03;5060388;28;19924;-63
2022/06/20 01:39:49;;;;;;;;;;;;;;;14.06;74.15;101387.88;5063157;28;20392;-62
2022/06/20 01:42:21;;;;;;;;;;;;;;;14.05;73.55;101375.56;5063672;28;19967;-62
2022/06/20 01:44:48;;;;;;;;;;;;;;;14.03;74.24;101368.72;5058280;28;20429;-61
2022/06/20 01:47:13;;;;;;;;;;;;;;;13.99;73.80;101370.91;5063396;28;19924;-61
2022/06/20 01:49:41;;;;;;;;;;;;;;;13.94;74.79;101362.59;5064028;28;20953;-63
2022/06/20 01:52:07;;;;;;;;;;;;;;;13.95;73.95;101364.25;5060049;28;20450;-62
2022/06/20 01:54:36;;;;;;;;;;;;;;;13.91;74.50;101357.59;5044359;28;20043;-61
2022/06/20 01:57:03;;;;;;;;;;;;;;;13.90;74.09;101361.25;5043197;28;20061;-63
2022/06/20 01:59:51;;;;;;;;;;;;;;;13.93;74.22;101366.25;5061699;28;19935;-62
2022/06/20 02:02:17;;;;;;;;;;;;;;;13.85;75.56;101354.63;5058415;28;19970;-61
2022/06/20 02:04:43;;;;;;;;;;;;;;;13.74;76.14;101348.81;5066073;28;19928;-62
2022/06/20 02:07:09;;;;;;;;;;;;;;;13.59;76.39;101345.00;5059199;28;20444;-61
2022/06/20 02:09:35;;;;;;;;;;;;;;;13.44;76.79;101341.34;5062002;28;20047;-62
2022/06/20 02:12:01;;;;;;;;;;;;;;;13.44;76.16;101333.34;5061424;28;20280;-62
2022/06/20 02:14:37;;;;;;;;;;;;;;;13.46;75.55;101328.69;5055924;28;20007;-61
2022/06/20 02:17:22;;;;;;;;;;;;;;;13.53;75.04;101329.69;5061541;28;19962;-61
2022/06/20 02:19:50;;;;;;;;;;;;;;;13.44;76.14;101309.38;5050249;28;19954;-61
2022/06/20 02:22:17;;;;;;;;;;;;;;;13.37;76.91;101308.38;5060428;28;19928;-61
2022/06/20 02:24:44;;;;;;;;;;;;;;;13.28;76.85;101310.22;5061197;28;19929;-61
2022/06/20 02:27:13;;;;;;;;;;;;;;;13.22;77.47;101298.38;5062701;28;19924;-62
2022/06/20 02:29:38;;;;;;;;;;;;;;;13.19;76.85;101301.41;5062470;28;20030;-61
2022/06/20 02:32:20;;;;;;;;;;;;;;;13.19;76.83;101301.41;5061752;28;19967;-61
2022/06/20 02:34:46;;;;;;;;;;;;;;;13.28;76.14;101307.56;5061573;28;19924;-60
2022/06/20 02:37:14;;;;;;;;;;;;;;;13.24;76.11;101309.72;5061821;28;20377;-61
2022/06/20 02:39:40;;;;;;;;;;;;;;;13.27;75.60;101304.06;5062467;28;19924;-61
2022/06/20 02:42:08;;;;;;;;;;;;;;;13.28;75.54;101297.72;5060706;28;19928;-61
2022/06/20 02:44:34;;;;;;;;;;;;;;;13.29;75.50;101299.41;5062383;28;20457;-61
2022/06/20 02:47:02;;;;;;;;;;;;;;;13.29;76.04;101294.09;5063187;28;19931;-63
2022/06/20 02:49:28;;;;;;;;;;;;;;;13.22;76.77;101287.75;5061646;28;20039;-61
2022/06/20 02:51:55;;;;;;;;;;;;;;;13.18;76.54;101286.44;5061126;28;20394;-62
2022/06/20 02:54:23;;;;;;;;;;;;;;;13.14;76.12;101271.78;5055504;28;19928;-61
2022/06/20 02:56:51;;;;;;;;;;;;;;;13.12;76.23;101269.28;5063046;28;19925;-63
2022/06/20 02:59:22;;;;;;;;;;;;;;;13.03;76.79;101260.47;5057329;28;19925;-62
2022/06/20 03:02:00;;;;;;;;;;;;;;;13.02;77.16;101252.63;5060015;28;19935;-63
2022/06/20 03:04:26;;;;;;;;;;;;;;;12.96;77.02;101248.81;5052432;28;20368;-61
2022/06/20 03:06:55;;;;;;;;;;;;;;;12.99;76.25;101245.00;5061983;28;20008;-61
2022/06/20 03:09:24;;;;;;;;;;;;;;;13.07;75.75;101254.81;5060153;28;19928;-61
2022/06/20 03:11:50;;;;;;;;;;;;;;;13.10;75.95;101265.13;5058007;28;19932;-61
2022/06/20 03:14:16;;;;;;;;;;;;;;;13.09;76.20;101266.13;5055917;28;19924;-61
2022/06/20 03:16:42;;;;;;;;;;;;;;;13.12;75.71;101268.47;5062038;28;20535;-60
2022/06/20 03:19:13;;;;;;;;;;;;;;;13.15;75.34;101268.97;5060259;28;19925;-60
2022/06/20 03:21:40;;;;;;;;;;;;;;;13.15;75.39;101273.44;5050073;28;19947;-62
2022/06/20 03:24:06;;;;;;;;;;;;;;;13.21;75.09;101288.75;5065690;28;19974;-61
2022/06/20 03:26:31;;;;;;;;;;;;;;;13.26;75.16;101286.41;5042277;28;20330;-61
2022/06/20 03:28:58;;;;;;;;;;;;;;;13.28;74.87;101289.72;5037731;28;19924;-61
2022/06/20 03:31:23;;;;;;;;;;;;;;;13.32;74.86;101285.75;5040281;28;20383;-62
2022/06/20 03:33:48;;;;;;;;;;;;;;;13.31;75.02;101278.75;5041709;28;19931;-61
2022/06/20 03:36:25;;;;;;;;;;;;;;;13.18;75.83;101289.91;5043314;28;19970;-61
2022/06/20 03:38:51;;;;;;;;;;;;;;;13.18;75.34;101303.22;5039774;28;19925;-61
2022/06/20 03:41:21;;;;;;;;;;;;;;;13.20;75.03;101308.38;5035298;28;19970;-62
2022/06/20 03:43:49;;;;;;;;;;;;;;;13.25;74.95;101316.72;5038052;28;19929;-61
2022/06/20 03:46:18;;;;;;;;;;;;;;;13.29;75.01;101335.84;5026658;28;20370;-63
2022/06/20 03:48:48;;;;;;;;;;;;;;;13.26;74.89;101341.50;5035324;28;20015;-61
2022/06/20 03:51:17;;;;;;;;;;;;;;;13.29;74.95;101343.84;5037772;28;19980;-62
2022/06/20 03:54:01;;;;;;;;;;;;;;;13.34;74.78;101357.50;5038967;28;19924;-61
2022/06/20 03:56:44;;;;;;;;;;;;;;;13.40;74.75;101353.31;5042966;28;19932;-62
2022/06/20 03:59:17;;;;;;;;;;;;;;;13.47;74.38;101356.19;5041451;28;19925;-61
2022/06/20 04:01:48;;;;;;;;;;;;;;;13.50;74.46;101362.00;5040713;28;19925;-62
2022/06/20 04:04:33;;;;;;;;;;;;;;;13.55;74.46;101358.81;5045830;28;19925;-61
2022/06/20 04:07:03;;;;;;;;;;;;;;;13.55;74.25;101365.00;5056919;28;20799;-62
2022/06/20 04:12:20;;;;;;;;;;;;;;;13.64;74.44;101362.31;5033459;28;19928;-63
2022/06/20 04:14:49;;;;;;;;;;;;;;;13.66;74.21;101366.47;5039887;28;19982;-62
2022/06/20 04:20:27;;;;;;;;;;;;;;;13.69;74.37;101367.97;5041590;28;20845;-61
2022/06/20 04:22:54;;;;;;;;;;;;;;;13.74;74.32;101381.63;5046980;28;19927;-63
2022/06/20 04:25:28;;;;;;;;;;;;;;;13.75;74.40;101382.44;5061514;28;20050;-61
2022/06/20 04:28:12;;;;;;;;;;;;;;;13.75;75.24;101383.28;5063864;28;19924;-61
2022/06/20 04:30:40;;;;;;;;;;;;;;;13.72;74.41;101394.31;5053410;28;20039;-61
2022/06/20 04:33:26;;;;;;;;;;;;;;;13.69;74.77;101391.97;5063180;28;20267;-62
2022/06/20 04:36:15;;;;;;;;;;;;;;;13.66;75.03;101403.78;5058182;28;19924;-63
2022/06/20 04:38:47;;;;;;;;;;;;;;;13.67;74.83;101394.78;5060906;28;20502;-61
2022/06/20 04:41:17;;;;;;;;;;;;;;;13.68;74.70;101391.13;5063315;28;19920;-62
2022/06/20 04:43:46;;;;;;;;;;;;;;;13.70;74.70;101396.28;5064230;28;19928;-61
2022/06/20 04:46:32;;;;;;;;;;;;;;;13.73;74.95;101398.63;5066593;28;19931;-62
2022/06/20 04:48:59;;;;;;;;;;;;;;;13.77;74.69;101405.25;5064873;28;20348;-61
2022/06/20 04:51:32;;;;;;;;;;;;;;;13.82;75.17;101413.59;5072624;28;20321;-62
2022/06/20 04:53:57;;;;;;;;;;;;;;;13.87;74.74;101417.59;5059176;28;19963;-61
2022/06/20 04:56:26;;;;;;;;;;;;;;;13.88;75.02;101419.25;5069134;28;19967;-61
2022/06/20 04:59:00;;;;;;;;;;;;;;;13.92;75.40;101417.91;5068478;28;19968;-63
2022/06/20 05:01:28;;;;;;;;;;;;;;;13.93;74.70;101415.09;5061277;28;19954;-61
2022/06/20 05:03:56;;;;;;;;;;;;;;;13.94;74.96;101415.91;5066107;28;19920;-63
2022/06/20 05:06:26;;;;;;;;;;;;;;;13.95;75.22;101420.22;5055234;28;19924;-61
2022/06/20 05:08:53;;;;;;;;;;;;;;;13.98;75.05;101411.91;5060271;28;19924;-61
2022/06/20 05:11:26;;;;;;;;;;;;;;;14.03;74.99;101412.22;5056522;28;19931;-61
2022/06/20 05:14:00;;;;;;;;;;;;;;;14.08;74.88;101422.38;5062747;28;20019;-63
2022/06/20 05:16:29;;;;;;;;;;;;;;;14.12;74.62;101418.38;5056203;28;19929;-63
2022/06/20 05:19:14;;;;;;;;;;;;;;;14.13;75.00;101418.19;5065888;28;20014;-61
2022/06/20 05:21:41;;;;;;;;;;;;;;;14.16;76.57;101418.88;5067843;28;20388;-62
2022/06/20 05:24:27;;;;;;;;;;;;;;;14.16;75.03;101435.69;5065335;28;20783;-63
2022/06/20 05:26:52;;;;;;;;;;;;;;;14.16;75.00;101446.34;5066903;28;19928;-63
2022/06/20 05:29:23;;;;;;;;;;;;;;;14.16;75.30;101440.19;5073991;28;19953;-62
2022/06/20 05:31:50;;;;;;;;;;;;;;;14.21;75.36;101432.53;5068622;28;19923;-62
2022/06/20 05:34:18;;;;;;;;;;;;;;;14.20;75.24;101430.84;5060997;28;20419;-63
2022/06/20 05:36:52;;;;;;;;;;;;;;;14.21;75.17;101422.66;5062482;28;20590;-62
2022/06/20 05:39:20;;;;;;;;;;;;;;;14.21;75.70;101421.84;5061267;28;20506;-61
2022/06/20 05:41:46;;;;;;;;;;;;;;;14.21;75.13;101417.34;5066245;28;19929;-64
2022/06/20 05:44:12;;;;;;;;;;;;;;;14.18;76.08;101416.84;5070025;28;19935;-63
2022/06/20 05:46:41;;;;;;;;;;;;;;;14.13;75.89;101412.84;5062220;28;20634;-56
2022/06/20 05:49:15;;;;;;;;;;;;;;;14.15;75.37;101417.22;5066314;28;19928;-62
2022/06/20 05:51:41;;;;;;;;;;;;;;;14.19;76.43;101418.50;5063297;28;19990;-65
2022/06/20 05:54:15;;;;;;;;;;;;;;;14.19;75.38;101419.34;5063732;28;19931;-63
2022/06/20 05:56:46;;;;;;;;;;;;;;;14.24;75.52;101437.50;5046180;28;20036;-61
2022/06/20 05:59:24;;;;;;;;;;;;;;;14.28;75.81;101438.84;5064867;28;19950;-63
2022/06/20 06:01:49;;;;;;;;;;;;;;;14.31;75.27;101438.47;5065647;28;19933;-64
2022/06/20 06:04:30;;;;;;;;;;;;;;;14.31;75.17;101435.81;5067787;28;19979;-62
2022/06/20 06:07:04;;;;;;;;;;;;;;;14.33;75.56;101444.50;5073278;28;20410;-65
2022/06/20 06:09:29;;;;;;;;;;;;;;;14.36;75.22;101441.47;5064115;28;20425;-65
2022/06/20 06:11:57;;;;;;;;;;;;;;;14.47;75.69;101439.44;5070196;28;19924;-65
2022/06/20 06:14:26;;;;;;;;;;;;;;;14.38;75.69;101438.63;5060905;28;19974;-62
2022/06/20 06:17:03;;;;;;;;;;;;;;;14.42;75.64;101434.63;5071654;28;19935;-63
2022/06/20 06:19:51;;;;;;;;;;;;;;;14.40;75.33;101441.94;5068599;28;19924;-63
2022/06/20 06:22:27;;;;;;;;;;;;;;;14.45;75.50;101438.78;5064702;28;20446;-65
2022/06/20 06:24:55;;;;;;;;;;;;;;;14.33;75.57;101443.66;5062501;28;19963;-62
2022/06/20 06:27:30;;;;;;;;;;;;;;;14.30;75.58;101444.00;5066952;28;19951;-64
2022/06/20 06:30:06;;;;;;;;;;;;;;;14.30;75.83;101452.81;5068496;28;21974;-63
2022/06/20 06:32:32;;;;;;;;;;;;;;;14.36;75.51;101452.13;5057540;28;19932;-63
2022/06/20 06:35:06;;;;;;;;;;;;;;;14.37;75.63;101440.47;5058915;28;20318;-63
2022/06/20 06:37:41;;;;;;;;;;;;;;;14.40;75.40;101447.28;5063863;28;19981;-64
2022/06/20 06:40:12;;;;;;;;;;;;;;;14.65;74.84;101445.38;5063570;28;19924;-60
2022/06/20 06:42:39;;;;;;;;;;;;;;;14.55;75.26;101455.41;5058949;28;20323;-60
2022/06/20 06:45:05;;;;;;;;;;;;;;;14.54;74.93;101456.41;5059972;28;19960;-61
2022/06/20 06:47:34;;;;;;;;;;;;;;;14.56;74.85;101462.41;5060875;28;19931;-59
2022/06/20 06:50:03;;;;;;;;;;;;;;;14.68;74.33;101470.88;5060394;28;19924;-59
2022/06/20 06:52:31;;;;;;;;;;;;;;;14.77;74.18;101472.53;5062241;28;19924;-60
2022/06/20 06:54:59;;;;;;;;;;;;;;;14.97;73.79;101479.28;5060057;28;20854;-59
2022/06/20 06:57:31;;;;;;;;;;;;;;;15.09;73.19;101477.88;5063141;28;19974;-60
2022/06/20 07:00:15;;;;;;;;;;;;;;;15.03;73.45;101475.91;5059810;28;20717;-60
2022/06/20 07:02:43;;;;;;;;;;;;;;;15.16;72.25;101478.81;5059082;28;19929;-59
2022/06/20 07:05:16;;;;;;;;;;;;;;;15.40;71.74;101485.03;5058268;28;19921;-60
2022/06/20 07:07:44;;;;;;;;;;;;;;;15.39;72.33;101483.38;5060030;28;19924;-61
2022/06/20 07:10:16;;;;;;;;;;;;;;;15.39;72.24;101486.03;5051248;28;20402;-60
2022/06/20 07:12:41;;;;;;;;;;;;;;;15.46;71.27;101494.19;5058194;28;19932;-60
2022/06/20 07:15:11;;;;;;;;;;;;;;;15.38;71.15;101503.09;5060228;28;19929;-60
2022/06/20 07:17:46;;;;;;;;;;;;;;;15.23;71.45;101502.16;5055867;28;19947;-60
2022/06/20 07:20:11;;;;;;;;;;;;;;;15.06;71.31;101503.09;5056870;28;19954;-61
2022/06/20 07:22:39;;;;;;;;;;;;;;;14.92;71.78;101510.00;5056543;28;20861;-60
2022/06/20 07:25:05;;;;;;;;;;;;;;;14.79;72.10;101509.72;5058052;28;20462;-58
2022/06/20 07:27:34;;;;;;;;;;;;;;;14.79;71.90;101509.72;5060619;28;19935;-60
2022/06/20 07:30:13;;;;;;;;;;;;;;;14.87;72.26;101507.06;5054820;28;19931;-60
2022/06/20 07:32:40;;;;;;;;;;;;;;;15.09;71.52;101498.44;5061651;28;20379;-61
2022/06/20 07:35:09;;;;;;;;;;;;;;;15.32;71.27;101498.44;5063673;28;19924;-61
2022/06/20 07:37:44;;;;;;;;;;;;;;;15.53;70.04;101491.63;5064006;28;20012;-59
2022/06/20 07:40:29;;;;;;;;;;;;;;;15.79;70.37;101498.44;5056718;28;19931;-59
2022/06/20 07:42:58;;;;;;;;;;;;;;;16.06;70.18;101498.91;5064109;28;20315;-59
2022/06/20 07:45:41;;;;;;;;;;;;;;;16.18;68.01;101502.78;5062790;28;19924;-59
2022/06/20 07:48:11;;;;;;;;;;;;;;;16.24;66.40;101496.72;5064522;28;20336;-58
2022/06/20 07:50:43;;;;;;;;;;;;;;;16.40;67.16;101501.06;5061570;28;20613;-59
2022/06/20 07:53:15;;;;;;;;;;;;;;;16.48;66.44;101508.16;5066967;28;20450;-60
2022/06/20 07:55:43;;;;;;;;;;;;;;;16.43;65.97;101515.09;5064628;28;20358;-60
2022/06/20 07:58:17;;;;;;;;;;;;;;;16.33;65.64;101515.38;5064834;28;19975;-59
2022/06/20 08:00:45;;;;;;;;;;;;;;;16.22;64.87;101508.59;5041723;28;19931;-59
2022/06/20 08:03:21;;;;;;;;;;;;;;;16.45;64.71;101516.56;5063984;28;19924;-59
2022/06/20 08:05:56;;;;;;;;;;;;;;;16.41;62.97;101512.59;5058331;28;19925;-60
2022/06/20 08:08:32;;;;;;;;;;;;;;;16.56;64.43;101519.78;5061938;28;19924;-59
2022/06/20 08:11:08;;;;;;;;;;;;;;;16.74;64.99;101520.28;5051956;28;19928;-59
2022/06/20 08:13:46;;;;;;;;;;;;;;;17.14;61.09;101519.97;5060918;28;20408;-60
2022/06/20 08:16:16;;;;;;;;;;;;;;;16.93;61.61;101515.34;5060817;28;19931;-59
2022/06/20 08:18:42;;;;;;;;;;;;;;;16.91;60.65;101514.69;5063320;28;19931;-59
2022/06/20 08:21:10;;;;;;;;;;;;;;;17.00;62.56;101516.25;5052388;28;19928;-59
2022/06/20 08:23:42;;;;;;;;;;;;;;;17.10;61.37;101516.00;5062561;28;19924;-61
2022/06/20 08:26:09;;;;;;;;;;;;;;;16.96;61.81;101519.50;5064876;28;20058;-61
2022/06/20 08:28:40;;;;;;;;;;;;;;;16.69;62.73;101517.31;5058916;28;19931;-61
2022/06/20 08:31:11;;;;;;;;;;;;;;;16.57;62.96;101526.84;5059135;28;19932;-60
2022/06/20 08:33:43;;;;;;;;;;;;;;;16.47;62.32;101527.13;5052881;28;19920;-60
2022/06/20 08:36:16;;;;;;;;;;;;;;;16.36;61.53;101531.06;5062509;28;19958;-60
2022/06/20 08:39:00;;;;;;;;;;;;;;;16.59;62.73;101530.16;5055747;28;20398;-60
2022/06/20 08:41:44;;;;;;;;;;;;;;;16.75;63.15;101518.41;5060718;28;20654;-60
2022/06/20 08:44:35;;;;;;;;;;;;;;;17.00;62.73;101526.97;5061352;28;19939;-60
2022/06/20 08:47:18;;;;;;;;;;;;;;;17.30;60.37;101537.66;5064323;28;19978;-60
2022/06/20 08:50:02;;;;;;;;;;;;;;;17.46;59.74;101530.38;5051064;28;20547;-60
2022/06/20 08:52:46;;;;;;;;;;;;;;;17.61;59.55;101533.00;5062814;28;19944;-60
2022/06/20 08:55:29;;;;;;;;;;;;;;;17.58;59.90;101538.75;5060430;28;19978;-60
2022/06/20 08:58:02;;;;;;;;;;;;;;;17.36;59.26;101551.31;5054576;28;19934;-60
2022/06/20 09:00:43;;;;;;;;;;;;;;;17.04;59.46;101554.25;5054199;28;20003;-62
2022/06/20 09:03:28;;;;;;;;;;;;;;;16.79;60.61;101554.53;5064317;28;20496;-61
2022/06/20 09:05:56;;;;;;;;;;;;;;;16.76;60.36;101563.75;5063275;28;19967;-62
2022/06/20 09:08:45;;;;;;;;;;;;;;;16.95;59.64;101561.53;5065045;28;19981;-60
2022/06/20 09:11:11;;;;;;;;;;;;;;;17.01;59.93;101557.25;5061516;28;19974;-60
2022/06/20 09:13:54;;;;;;;;;;;;;;;17.32;57.66;101561.59;5061784;28;20558;-61
2022/06/20 09:16:35;;;;;;;;;;;;;;;17.56;58.98;101557.72;5057761;28;19927;-60
2022/06/20 09:19:27;;;;;;;;;;;;;;;17.70;58.11;101565.88;5061983;28;19936;-62
2022/06/20 09:21:52;;;;;;;;;;;;;;;17.56;57.93;101560.41;5056802;28;19931;-60
2022/06/20 09:24:34;;;;;;;;;;;;;;;17.29;58.66;101570.00;5061349;28;19925;-60
2022/06/20 09:27:07;;;;;;;;;;;;;;;17.08;59.20;101567.06;5060366;28;20472;-60
2022/06/20 09:29:51;;;;;;;;;;;;;;;17.18;59.30;101569.47;5061756;28;20525;-61
2022/06/20 09:32:35;;;;;;;;;;;;;;;17.44;59.05;101565.44;5058447;28;19928;-60
2022/06/20 09:35:23;;;;;;;;;;;;;;;17.75;55.60;101567.00;5057640;28;19967;-60
2022/06/20 09:38:07;;;;;;;;;;;;;;;17.65;58.06;101571.84;5053039;28;19932;-60
2022/06/20 09:40:44;;;;;;;;;;;;;;;17.60;55.89;101575.09;5058534;28;19986;-61
2022/06/20 09:43:18;;;;;;;;;;;;;;;17.44;55.42;101575.31;5053248;28;19946;-60
2022/06/20 09:45:56;;;;;;;;;;;;;;;17.26;56.25;101573.88;5062538;28;19924;-61
2022/06/20 09:48:21;;;;;;;;;;;;;;;17.35;56.44;101571.94;5063118;28;19925;-60
2022/06/20 09:50:53;;;;;;;;;;;;;;;17.59;56.75;101568.06;5061016;28;19928;-62
2022/06/20 09:53:55;;;;;;;;;;;;;;;17.88;56.50;101565.44;5060574;28;19929;-60
2022/06/20 09:56:38;;;;;;;;;;;;;;;18.26;55.42;101562.47;5006361;28;20092;-60
2022/06/20 09:59:09;;;;;;;;;;;;;;;18.52;55.46;101565.56;5053452;28;19931;-61
2022/06/20 10:01:41;;;;;;;;;;;;;;;18.69;54.11;101563.38;5049945;28;19975;-61
2022/06/20 10:04:13;;;;;;;;;;;;;;;18.75;54.89;101561.75;5057893;28;19951;-62
2022/06/20 10:06:38;;;;;;;;;;;;;;;18.84;55.54;101568.63;5062035;28;19924;-61
2022/06/20 10:09:11;;;;;;;;;;;;;;;18.91;54.90;101568.66;5059256;28;19936;-60
2022/06/20 10:11:49;;;;;;;;;;;;;;;18.83;53.16;101566.97;5056509;28;19924;-61
2022/06/20 10:14:28;;;;;;;;;;;;;;;18.71;55.37;101576.63;5061005;28;19936;-60
2022/06/20 10:16:57;;;;;;;;;;;;;;;18.98;51.85;101569.50;5038314;28;20650;-60
2022/06/20 10:19:27;;;;;;;;;;;;;;;18.90;53.69;101572.38;5060601;28;19972;-60
2022/06/20 10:22:11;;;;;;;;;;;;;;;19.02;54.23;101569.94;5045442;28;19924;-60
2022/06/20 10:24:42;;;;;;;;;;;;;;;19.26;52.22;101571.31;5058888;28;19924;-61
2022/06/20 10:27:13;;;;;;;;;;;;;;;19.30;53.20;101582.50;5064968;28;19925;-63
2022/06/20 10:29:44;;;;;;;;;;;;;;;19.21;52.61;101585.34;5057612;28;19925;-64
2022/06/20 10:32:18;;;;;;;;;;;;;;;18.85;53.60;101589.06;5066027;28;19924;-63
2022/06/20 10:34:58;;;;;;;;;;;;;;;18.63;54.39;101589.19;5062755;28;20043;-62
2022/06/20 10:37:23;;;;;;;;;;;;;;;18.46;54.87;101593.19;5064597;28;19928;-64
2022/06/20 10:40:01;;;;;;;;;;;;;;;18.40;54.17;101595.63;5059589;28;19925;-62
2022/06/20 10:42:31;;;;;;;;;;;;;;;18.58;54.27;101597.00;5060901;28;19924;-62
2022/06/20 10:44:59;;;;;;;;;;;;;;;18.80;51.74;101591.56;5047331;28;19927;-62
2022/06/20 10:47:24;;;;;;;;;;;;;;;19.09;52.94;101601.22;5059920;28;19956;-63
2022/06/20 10:49:49;;;;;;;;;;;;;;;19.14;52.62;101600.63;5067583;28;19955;-62
2022/06/20 10:52:30;;;;;;;;;;;;;;;19.21;51.43;101612.22;5068239;28;20314;-62
2022/06/20 10:55:04;;;;;;;;;;;;;;;19.29;49.72;101618.50;5040786;28;20299;-61
2022/06/20 10:57:32;;;;;;;;;;;;;;;19.35;51.42;101613.13;5057277;28;20385;-63
2022/06/20 11:00:11;;;;;;;;;;;;;;;19.47;51.14;101610.69;5063950;28;19937;-64
2022/06/20 11:02:56;;;;;;;;;;;;;;;19.59;50.95;101612.78;5061294;28;19925;-61
2022/06/20 11:05:35;;;;;;;;;;;;;;;19.67;48.82;101617.13;5060476;28;19928;-62
2022/06/20 11:08:03;;;;;;;;;;;;;;;19.74;51.10;101616.13;5063797;28;20015;-63
2022/06/20 11:10:34;;;;;;;;;;;;;;;19.92;50.01;101617.38;5064018;28;20340;-64
2022/06/20 11:12:59;;;;;;;;;;;;;;;19.99;50.28;101623.63;5070826;28;19936;-62
2022/06/20 11:15:43;;;;;;;;;;;;;;;19.97;49.34;101630.25;5062927;28;19925;-62
2022/06/20 11:18:38;;;;;;;;;;;;;;;19.70;51.24;101630.19;5075736;28;19932;-63
2022/06/20 11:21:22;;;;;;;;;;;;;;;19.58;51.06;101632.63;5051590;28;20391;-62
2022/06/20 11:24:08;;;;;;;;;;;;;;;19.63;50.60;101631.00;5065462;28;20325;-63
2022/06/20 11:26:40;;;;;;;;;;;;;;;19.62;50.27;101623.97;5064768;28;20441;-63
2022/06/20 11:29:11;;;;;;;;;;;;;;;19.57;50.66;101625.59;5065050;28;19929;-64
2022/06/20 11:31:52;;;;;;;;;;;;;;;19.49;50.60;101622.06;5065260;28;19924;-64
2022/06/20 11:34:32;;;;;;;;;;;;;;;19.35;51.59;101626.56;5061029;28;20006;-61
2022/06/20 11:37:00;;;;;;;;;;;;;;;19.14;51.18;101622.13;5073115;28;20030;-61
2022/06/20 11:39:31;;;;;;;;;;;;;;;19.10;52.00;101623.59;5070055;28;19924;-62
2022/06/20 11:42:06;;;;;;;;;;;;;;;19.20;49.53;101615.94;5062284;28;19924;-62
2022/06/20 11:44:49;;;;;;;;;;;;;;;19.44;51.09;101619.16;5065941;28;19931;-64
2022/06/20 11:47:21;;;;;;;;;;;;;;;19.78;50.83;101621.09;5070096;28;19928;-61
2022/06/20 11:50:07;;;;;;;;;;;;;;;19.86;48.79;101615.53;5066642;28;19947;-62
2022/06/20 11:52:47;;;;;;;;;;;;;;;19.76;49.97;101624.84;5066313;28;19939;-62
2022/06/20 11:55:31;;;;;;;;;;;;;;;19.48;48.30;101617.72;5069724;28;19924;-64
2022/06/20 11:58:07;;;;;;;;;;;;;;;19.42;50.46;101612.31;5068366;28;19974;-62
2022/06/20 12:00:39;;;;;;;;;;;;;;;19.64;49.56;101610.31;5067491;28;20044;-61
2022/06/20 12:03:13;;;;;;;;;;;;;;;19.61;48.95;101616.94;5067848;28;20428;-61
2022/06/20 12:05:42;;;;;;;;;;;;;;;19.65;48.40;101609.28;5065518;28;19924;-59
2022/06/20 12:08:31;;;;;;;;;;;;;;;19.86;48.93;101613.66;5065440;28;19926;-63
2022/06/20 12:11:17;;;;;;;;;;;;;;;20.15;47.43;101614.34;5068064;28;19928;-62
2022/06/20 12:13:59;;;;;;;;;;;;;;;20.27;47.95;101609.16;5066861;28;19940;-62
2022/06/20 12:16:43;;;;;;;;;;;;;;;20.43;47.37;101620.56;5066262;28;20343;-63
2022/06/20 12:24:49;;;;;;;;;;;;;;;19.74;47.93;101610.75;5070693;28;19974;-63
2022/06/20 12:27:18;;;;;;;;;;;;;;;19.71;48.29;101602.25;5070512;28;19960;-62
2022/06/20 12:29:44;;;;;;;;;;;;;;;19.95;48.17;101600.84;5064357;28;20348;-64
2022/06/20 12:32:20;;;;;;;;;;;;;;;20.32;46.97;101595.06;5068910;28;19924;-61
2022/06/20 12:34:59;;;;;;;;;;;;;;;20.46;47.46;101595.88;5067536;28;20287;-59
2022/06/20 12:37:40;;;;;;;;;;;;;;;20.38;46.75;101604.19;5069704;28;20040;-60
2022/06/20 12:40:11;;;;;;;;;;;;;;;20.27;47.00;101603.78;5068803;28;19978;-59
2022/06/20 12:42:55;;;;;;;;;;;;;;;20.51;46.22;101609.56;5070751;28;19959;-61
2022/06/20 12:45:27;;;;;;;;;;;;;;;20.53;46.19;101602.09;5072011;28;19916;-61
2022/06/20 12:48:01;;;;;;;;;;;;;;;20.64;46.52;101608.72;5067742;28;19956;-60
2022/06/20 12:50:26;;;;;;;;;;;;;;;20.81;44.75;101602.84;5071767;28;20351;-60
2022/06/20 12:53:01;;;;;;;;;;;;;;;20.81;44.06;101603.69;5062119;28;20031;-62
2022/06/20 12:55:45;;;;;;;;;;;;;;;20.46;45.05;101608.53;5069500;28;19924;-59
2022/06/20 12:58:18;;;;;;;;;;;;;;;20.19;45.71;101612.06;5063213;28;19929;-60
2022/06/20 13:01:03;;;;;;;;;;;;;;;20.05;45.63;101610.41;5068462;28;19924;-60
2022/06/20 13:03:28;;;;;;;;;;;;;;;20.44;45.59;101619.50;5057212;28;20398;-60
2022/06/20 13:05:58;;;;;;;;;;;;;;;20.41;46.25;101619.91;5069319;28;19920;-59
2022/06/20 13:08:23;;;;;;;;;;;;;;;20.22;46.56;101617.03;5068954;28;19931;-59
2022/06/20 13:11:01;;;;;;;;;;;;;;;20.40;45.91;101624.50;5067331;28;20295;-60
2022/06/20 13:13:32;;;;;;;;;;;;;;;20.27;46.46;101614.53;5068187;28;19928;-60